sensor_id;sensor_type;location;lat;lon;timestamp;temperature;humidity
30288;DHT22;17103;48.316;11.558;2023-08-17T00:01:55;28.20;45.60
30288;DHT22;17103;48.316;11.558;2023-08-17T00:04:21;28.10;45.40
30288;DHT22;17103;48.316;11.558;2023-08-17T00:06:46;28.10;45.30
30288;DHT22;17103;48.316;11.558;2023-08-17T00:09:12;28.00;45.60
30288;DHT22;17103;48.316;11.558;2023-08-17T00:11:41;28.10;45.80
30288;DHT22;17103;48.316;11.558;2023-08-17T00:14:06;28.10;45.80
30288;DHT22;17103;48.316;11.558;2023-08-17T00:16:32;28.20;45.90
30288;DHT22;17103;48.316;11.558;2023-08-17T00:18:57;28.00;45.90
30288;DHT22;17103;48.316;11.558;2023-08-17T00:21:23;27.90;45.80
30288;DHT22;17103;48.316;11.558;2023-08-17T00:23:49;27.90;45.90
30288;DHT22;17103;48.316;11.558;2023-08-17T00:26:16;27.90;46.00
30288;DHT22;17103;48.316;11.558;2023-08-17T00:28:42;27.80;46.00
30288;DHT22;17103;48.316;11.558;2023-08-17T00:31:07;27.80;46.10
30288;DHT22;17103;48.316;11.558;2023-08-17T00:33:33;27.80;46.20
30288;DHT22;17103;48.316;11.558;2023-08-17T00:35:58;27.70;46.20
30288;DHT22;17103;48.316;11.558;2023-08-17T00:38:24;27.90;46.30
30288;DHT22;17103;48.316;11.558;2023-08-17T00:40:50;28.00;46.40
30288;DHT22;17103;48.316;11.558;2023-08-17T00:43:15;27.70;46.30
30288;DHT22;17103;48.316;11.558;2023-08-17T00:45:41;27.70;46.40
30288;DHT22;17103;48.316;11.558;2023-08-17T00:48:08;27.60;46.40
30288;DHT22;17103;48.316;11.558;2023-08-17T00:50:34;27.60;46.50
30288;DHT22;17103;48.316;11.558;2023-08-17T00:53:00;27.70;46.50
30288;DHT22;17103;48.316;11.558;2023-08-17T00:55:27;27.80;46.60
30288;DHT22;17103;48.316;11.558;2023-08-17T00:57:53;27.50;46.50
30288;DHT22;17103;48.316;11.558;2023-08-17T01:00:20;27.50;47.20
30288;DHT22;17103;48.316;11.558;2023-08-17T01:02:47;27.70;46.80
30288;DHT22;17103;48.316;11.558;2023-08-17T01:05:15;27.50;46.70
30288;DHT22;17103;48.316;11.558;2023-08-17T01:07:41;27.40;46.90
30288;DHT22;17103;48.316;11.558;2023-08-17T01:10:08;27.40;46.80
30288;DHT22;17103;48.316;11.558;2023-08-17T01:13:05;27.40;47.00
30288;DHT22;17103;48.316;11.558;2023-08-17T01:15:40;27.40;47.30
30288;DHT22;17103;48.316;11.558;2023-08-17T01:18:23;27.40;47.30
30288;DHT22;17103;48.316;11.558;2023-08-17T01:20:52;27.30;47.40
30288;DHT22;17103;48.316;11.558;2023-08-17T01:23:18;27.70;47.40
30288;DHT22;17103;48.316;11.558;2023-08-17T01:25:44;27.30;47.30
30288;DHT22;17103;48.316;11.558;2023-08-17T01:28:10;27.10;47.30
30288;DHT22;17103;48.316;11.558;2023-08-17T01:30:56;27.30;47.50
30288;DHT22;17103;48.316;11.558;2023-08-17T01:33:31;27.30;47.90
30288;DHT22;17103;48.316;11.558;2023-08-17T01:36:01;27.20;47.80
30288;DHT22;17103;48.316;11.558;2023-08-17T01:38:29;27.30;47.60
30288;DHT22;17103;48.316;11.558;2023-08-17T01:40:57;27.20;47.60
30288;DHT22;17103;48.316;11.558;2023-08-17T01:43:23;27.20;47.70
30288;DHT22;17103;48.316;11.558;2023-08-17T01:45:49;27.20;47.70
30288;DHT22;17103;48.316;11.558;2023-08-17T01:48:15;27.20;47.70
30288;DHT22;17103;48.316;11.558;2023-08-17T01:50:40;27.10;47.70
30288;DHT22;17103;48.316;11.558;2023-08-17T01:53:06;27.10;47.70
30288;DHT22;17103;48.316;11.558;2023-08-17T01:55:31;27.10;47.80
30288;DHT22;17103;48.316;11.558;2023-08-17T01:57:57;27.10;47.90
30288;DHT22;17103;48.316;11.558;2023-08-17T02:00:23;27.10;47.90
30288;DHT22;17103;48.316;11.558;2023-08-17T02:02:48;27.00;47.90
30288;DHT22;17103;48.316;11.558;2023-08-17T02:05:14;27.00;47.90
30288;DHT22;17103;48.316;11.558;2023-08-17T02:07:39;27.00;48.20
30288;DHT22;17103;48.316;11.558;2023-08-17T02:10:05;26.90;47.90
30288;DHT22;17103;48.316;11.558;2023-08-17T02:12:31;26.90;48.00
30288;DHT22;17103;48.316;11.558;2023-08-17T02:14:56;27.00;48.20
30288;DHT22;17103;48.316;11.558;2023-08-17T02:17:22;26.90;48.20
30288;DHT22;17103;48.316;11.558;2023-08-17T02:19:48;26.80;48.20
30288;DHT22;17103;48.316;11.558;2023-08-17T02:22:14;26.90;48.30
30288;DHT22;17103;48.316;11.558;2023-08-17T02:24:40;26.80;48.40
30288;DHT22;17103;48.316;11.558;2023-08-17T02:27:06;26.80;48.40
30288;DHT22;17103;48.316;11.558;2023-08-17T02:29:32;26.80;48.40
30288;DHT22;17103;48.316;11.558;2023-08-17T02:31:57;26.80;48.40
30288;DHT22;17103;48.316;11.558;2023-08-17T02:34:23;26.80;48.50
30288;DHT22;17103;48.316;11.558;2023-08-17T02:36:48;26.70;48.50
30288;DHT22;17103;48.316;11.558;2023-08-17T02:39:14;26.70;48.50
30288;DHT22;17103;48.316;11.558;2023-08-17T02:41:40;26.70;48.50
30288;DHT22;17103;48.316;11.558;2023-08-17T02:44:06;26.80;48.50
30288;DHT22;17103;48.316;11.558;2023-08-17T02:46:32;26.70;48.50
30288;DHT22;17103;48.316;11.558;2023-08-17T02:48:57;26.70;48.60
30288;DHT22;17103;48.316;11.558;2023-08-17T02:51:23;26.70;48.60
30288;DHT22;17103;48.316;11.558;2023-08-17T02:53:49;26.80;48.70
30288;DHT22;17103;48.316;11.558;2023-08-17T02:56:14;26.70;48.30
30288;DHT22;17103;48.316;11.558;2023-08-17T02:58:40;26.60;48.50
30288;DHT22;17103;48.316;11.558;2023-08-17T03:01:06;26.60;48.60
30288;DHT22;17103;48.316;11.558;2023-08-17T03:03:32;26.60;48.70
30288;DHT22;17103;48.316;11.558;2023-08-17T03:05:58;26.60;48.70
30288;DHT22;17103;48.316;11.558;2023-08-17T03:08:23;26.60;48.80
30288;DHT22;17103;48.316;11.558;2023-08-17T03:10:49;26.60;48.80
30288;DHT22;17103;48.316;11.558;2023-08-17T03:13:14;26.50;48.70
30288;DHT22;17103;48.316;11.558;2023-08-17T03:15:40;26.50;48.90
30288;DHT22;17103;48.316;11.558;2023-08-17T03:18:06;26.40;48.80
30288;DHT22;17103;48.316;11.558;2023-08-17T03:20:31;26.50;48.90
30288;DHT22;17103;48.316;11.558;2023-08-17T03:22:57;26.40;49.50
30288;DHT22;17103;48.316;11.558;2023-08-17T03:25:23;26.30;49.00
30288;DHT22;17103;48.316;11.558;2023-08-17T03:27:48;26.40;49.00
30288;DHT22;17103;48.316;11.558;2023-08-17T03:30:14;26.40;49.10
30288;DHT22;17103;48.316;11.558;2023-08-17T03:32:39;26.40;49.30
30288;DHT22;17103;48.316;11.558;2023-08-17T03:35:06;26.40;49.30
30288;DHT22;17103;48.316;11.558;2023-08-17T03:37:32;26.30;49.40
30288;DHT22;17103;48.316;11.558;2023-08-17T03:39:58;26.30;49.50
30288;DHT22;17103;48.316;11.558;2023-08-17T03:42:23;26.30;49.40
30288;DHT22;17103;48.316;11.558;2023-08-17T03:44:49;26.20;49.50
30288;DHT22;17103;48.316;11.558;2023-08-17T03:47:14;26.20;49.50
30288;DHT22;17103;48.316;11.558;2023-08-17T03:49:40;26.10;49.40
30288;DHT22;17103;48.316;11.558;2023-08-17T03:52:06;26.00;49.50
30288;DHT22;17103;48.316;11.558;2023-08-17T03:54:31;26.10;49.30
30288;DHT22;17103;48.316;11.558;2023-08-17T03:56:57;26.00;49.40
30288;DHT22;17103;48.316;11.558;2023-08-17T03:59:22;26.00;49.50
30288;DHT22;17103;48.316;11.558;2023-08-17T04:01:50;25.90;49.60
30288;DHT22;17103;48.316;11.558;2023-08-17T04:04:16;25.90;49.70
30288;DHT22;17103;48.316;11.558;2023-08-17T04:06:41;25.80;49.60
30288;DHT22;17103;48.316;11.558;2023-08-17T04:09:07;25.80;49.60
30288;DHT22;17103;48.316;11.558;2023-08-17T04:11:35;25.80;49.70
30288;DHT22;17103;48.316;11.558;2023-08-17T04:14:02;25.80;49.70
30288;DHT22;17103;48.316;11.558;2023-08-17T04:16:27;25.80;49.70
30288;DHT22;17103;48.316;11.558;2023-08-17T04:18:53;25.60;49.90
30288;DHT22;17103;48.316;11.558;2023-08-17T04:21:19;25.80;49.80
30288;DHT22;17103;48.316;11.558;2023-08-17T04:23:45;25.80;50.30
30288;DHT22;17103;48.316;11.558;2023-08-17T04:26:11;25.70;49.80
30288;DHT22;17103;48.316;11.558;2023-08-17T04:28:37;25.70;49.90
30288;DHT22;17103;48.316;11.558;2023-08-17T04:31:02;25.80;50.10
30288;DHT22;17103;48.316;11.558;2023-08-17T04:33:28;25.80;50.20
30288;DHT22;17103;48.316;11.558;2023-08-17T04:35:53;25.80;50.30
30288;DHT22;17103;48.316;11.558;2023-08-17T04:38:19;25.70;50.40
30288;DHT22;17103;48.316;11.558;2023-08-17T04:40:45;25.70;50.50
30288;DHT22;17103;48.316;11.558;2023-08-17T04:43:10;25.70;50.60
30288;DHT22;17103;48.316;11.558;2023-08-17T04:45:36;25.70;50.70
30288;DHT22;17103;48.316;11.558;2023-08-17T04:48:02;25.70;50.80
30288;DHT22;17103;48.316;11.558;2023-08-17T04:50:28;25.70;50.80
30288;DHT22;17103;48.316;11.558;2023-08-17T04:52:53;25.70;50.80
30288;DHT22;17103;48.316;11.558;2023-08-17T04:55:19;25.60;50.80
30288;DHT22;17103;48.316;11.558;2023-08-17T04:57:44;25.70;50.90
30288;DHT22;17103;48.316;11.558;2023-08-17T05:00:10;25.70;51.00
30288;DHT22;17103;48.316;11.558;2023-08-17T05:02:37;25.70;51.10
30288;DHT22;17103;48.316;11.558;2023-08-17T05:05:06;25.70;51.20
30288;DHT22;17103;48.316;11.558;2023-08-17T05:07:33;25.70;51.30
30288;DHT22;17103;48.316;11.558;2023-08-17T05:09:59;25.70;51.30
30288;DHT22;17103;48.316;11.558;2023-08-17T05:12:25;25.70;51.40
30288;DHT22;17103;48.316;11.558;2023-08-17T05:14:51;25.60;51.40
30288;DHT22;17103;48.316;11.558;2023-08-17T05:17:16;25.80;51.60
30288;DHT22;17103;48.316;11.558;2023-08-17T05:19:42;25.80;51.70
30288;DHT22;17103;48.316;11.558;2023-08-17T05:22:12;25.80;51.70
30288;DHT22;17103;48.316;11.558;2023-08-17T05:24:38;25.80;51.90
30288;DHT22;17103;48.316;11.558;2023-08-17T05:27:04;25.90;51.80
30288;DHT22;17103;48.316;11.558;2023-08-17T05:29:30;25.80;51.60
30288;DHT22;17103;48.316;11.558;2023-08-17T05:31:57;25.90;51.80
30288;DHT22;17103;48.316;11.558;2023-08-17T05:34:23;25.80;51.80
30288;DHT22;17103;48.316;11.558;2023-08-17T05:36:49;25.80;51.90
30288;DHT22;17103;48.316;11.558;2023-08-17T05:39:14;25.80;51.90
30288;DHT22;17103;48.316;11.558;2023-08-17T05:41:40;25.80;52.00
30288;DHT22;17103;48.316;11.558;2023-08-17T05:44:17;25.90;52.10
30288;DHT22;17103;48.316;11.558;2023-08-17T05:46:43;25.90;52.50
30288;DHT22;17103;48.316;11.558;2023-08-17T05:49:08;25.90;52.20
30288;DHT22;17103;48.316;11.558;2023-08-17T05:51:34;26.00;52.30
30288;DHT22;17103;48.316;11.558;2023-08-17T05:54:00;25.90;52.20
30288;DHT22;17103;48.316;11.558;2023-08-17T05:56:25;26.10;52.30
30288;DHT22;17103;48.316;11.558;2023-08-17T05:58:51;26.00;52.30
30288;DHT22;17103;48.316;11.558;2023-08-17T06:01:16;26.10;52.90
30288;DHT22;17103;48.316;11.558;2023-08-17T06:03:42;26.10;52.40
30288;DHT22;17103;48.316;11.558;2023-08-17T06:06:09;26.10;52.30
30288;DHT22;17103;48.316;11.558;2023-08-17T06:08:34;26.10;52.50
30288;DHT22;17103;48.316;11.558;2023-08-17T06:11:00;26.10;52.30
30288;DHT22;17103;48.316;11.558;2023-08-17T06:13:26;26.20;52.50
30288;DHT22;17103;48.316;11.558;2023-08-17T06:15:51;26.20;52.50
30288;DHT22;17103;48.316;11.558;2023-08-17T06:18:17;26.20;52.30
30288;DHT22;17103;48.316;11.558;2023-08-17T06:20:43;26.20;52.30
30288;DHT22;17103;48.316;11.558;2023-08-17T06:23:08;26.30;52.50
30288;DHT22;17103;48.316;11.558;2023-08-17T06:25:34;26.20;52.00
30288;DHT22;17103;48.316;11.558;2023-08-17T06:28:01;26.30;52.20
30288;DHT22;17103;48.316;11.558;2023-08-17T06:30:26;26.30;52.40
30288;DHT22;17103;48.316;11.558;2023-08-17T06:32:52;26.20;52.30
30288;DHT22;17103;48.316;11.558;2023-08-17T06:35:18;26.40;52.60
30288;DHT22;17103;48.316;11.558;2023-08-17T06:37:44;26.40;52.80
30288;DHT22;17103;48.316;11.558;2023-08-17T06:40:09;26.50;52.80
30288;DHT22;17103;48.316;11.558;2023-08-17T06:42:35;26.40;52.80
30288;DHT22;17103;48.316;11.558;2023-08-17T06:45:01;26.60;52.70
30288;DHT22;17103;48.316;11.558;2023-08-17T06:47:27;26.60;52.70
30288;DHT22;17103;48.316;11.558;2023-08-17T06:49:52;26.60;52.70
30288;DHT22;17103;48.316;11.558;2023-08-17T06:52:18;26.60;52.60
30288;DHT22;17103;48.316;11.558;2023-08-17T06:54:44;26.70;52.70
30288;DHT22;17103;48.316;11.558;2023-08-17T06:57:10;26.70;52.50
30288;DHT22;17103;48.316;11.558;2023-08-17T06:59:36;26.80;52.50
30288;DHT22;17103;48.316;11.558;2023-08-17T07:02:01;26.80;52.30
30288;DHT22;17103;48.316;11.558;2023-08-17T07:04:27;26.90;52.00
30288;DHT22;17103;48.316;11.558;2023-08-17T07:06:52;26.90;52.60
30288;DHT22;17103;48.316;11.558;2023-08-17T07:09:18;26.90;52.40
30288;DHT22;17103;48.316;11.558;2023-08-17T07:11:44;27.00;52.50
30288;DHT22;17103;48.316;11.558;2023-08-17T07:14:09;27.00;52.20
30288;DHT22;17103;48.316;11.558;2023-08-17T07:16:35;27.00;52.20
30288;DHT22;17103;48.316;11.558;2023-08-17T07:19:00;27.10;52.30
30288;DHT22;17103;48.316;11.558;2023-08-17T07:21:26;27.10;51.90
30288;DHT22;17103;48.316;11.558;2023-08-17T07:23:54;27.10;52.20
30288;DHT22;17103;48.316;11.558;2023-08-17T07:26:20;27.20;52.30
30288;DHT22;17103;48.316;11.558;2023-08-17T07:28:46;27.20;52.20
30288;DHT22;17103;48.316;11.558;2023-08-17T07:31:12;27.30;52.30
30288;DHT22;17103;48.316;11.558;2023-08-17T07:33:38;27.30;52.10
30288;DHT22;17103;48.316;11.558;2023-08-17T07:36:03;27.40;52.20
30288;DHT22;17103;48.316;11.558;2023-08-17T07:38:29;27.40;51.90
30288;DHT22;17103;48.316;11.558;2023-08-17T07:40:55;27.60;52.20
30288;DHT22;17103;48.316;11.558;2023-08-17T07:43:23;27.50;52.10
30288;DHT22;17103;48.316;11.558;2023-08-17T07:45:55;27.60;52.00
30288;DHT22;17103;48.316;11.558;2023-08-17T07:48:22;27.60;51.70
30288;DHT22;17103;48.316;11.558;2023-08-17T07:50:51;27.70;51.80
30288;DHT22;17103;48.316;11.558;2023-08-17T07:53:17;27.70;51.90
30288;DHT22;17103;48.316;11.558;2023-08-17T07:55:43;27.80;51.90
30288;DHT22;17103;48.316;11.558;2023-08-17T07:58:09;27.90;51.40
30288;DHT22;17103;48.316;11.558;2023-08-17T08:00:34;28.00;51.20
30288;DHT22;17103;48.316;11.558;2023-08-17T08:03:00;28.00;51.50
30288;DHT22;17103;48.316;11.558;2023-08-17T08:05:26;28.10;51.50
30288;DHT22;17103;48.316;11.558;2023-08-17T08:07:52;28.20;51.50
30288;DHT22;17103;48.316;11.558;2023-08-17T08:10:18;28.20;51.20
30288;DHT22;17103;48.316;11.558;2023-08-17T08:12:44;28.30;51.20
30288;DHT22;17103;48.316;11.558;2023-08-17T08:15:09;28.40;51.40
30288;DHT22;17103;48.316;11.558;2023-08-17T08:17:35;28.40;51.10
30288;DHT22;17103;48.316;11.558;2023-08-17T08:20:01;28.50;50.60
30288;DHT22;17103;48.316;11.558;2023-08-17T08:22:27;28.60;50.50
30288;DHT22;17103;48.316;11.558;2023-08-17T08:24:52;28.60;50.50
30288;DHT22;17103;48.316;11.558;2023-08-17T08:27:18;28.70;50.40
30288;DHT22;17103;48.316;11.558;2023-08-17T08:29:44;28.80;50.20
30288;DHT22;17103;48.316;11.558;2023-08-17T08:32:09;28.80;50.20
30288;DHT22;17103;48.316;11.558;2023-08-17T08:34:35;28.90;50.10
30288;DHT22;17103;48.316;11.558;2023-08-17T08:37:01;28.90;50.10
30288;DHT22;17103;48.316;11.558;2023-08-17T08:39:26;29.10;49.90
30288;DHT22;17103;48.316;11.558;2023-08-17T08:41:53;29.10;50.00
30288;DHT22;17103;48.316;11.558;2023-08-17T08:44:19;29.20;50.10
30288;DHT22;17103;48.316;11.558;2023-08-17T08:46:45;29.20;49.70
30288;DHT22;17103;48.316;11.558;2023-08-17T08:49:12;29.30;49.40
30288;DHT22;17103;48.316;11.558;2023-08-17T08:51:46;29.40;49.30
30288;DHT22;17103;48.316;11.558;2023-08-17T08:54:20;29.50;48.90
30288;DHT22;17103;48.316;11.558;2023-08-17T08:56:46;29.50;48.90
30288;DHT22;17103;48.316;11.558;2023-08-17T08:59:14;29.60;48.80
30288;DHT22;17103;48.316;11.558;2023-08-17T09:01:42;29.70;48.80
30288;DHT22;17103;48.316;11.558;2023-08-17T09:04:08;29.70;48.40
30288;DHT22;17103;48.316;11.558;2023-08-17T09:06:34;29.70;48.30
30288;DHT22;17103;48.316;11.558;2023-08-17T09:09:01;29.80;48.40
30288;DHT22;17103;48.316;11.558;2023-08-17T09:11:28;29.90;48.40
30288;DHT22;17103;48.316;11.558;2023-08-17T09:13:54;30.00;48.30
30288;DHT22;17103;48.316;11.558;2023-08-17T09:16:20;30.00;48.00
30288;DHT22;17103;48.316;11.558;2023-08-17T09:18:46;30.10;47.90
30288;DHT22;17103;48.316;11.558;2023-08-17T09:21:24;30.20;47.70
30288;DHT22;17103;48.316;11.558;2023-08-17T09:23:54;30.20;47.30
30288;DHT22;17103;48.316;11.558;2023-08-17T09:26:21;30.30;47.50
30288;DHT22;17103;48.316;11.558;2023-08-17T09:28:52;30.40;47.50
30288;DHT22;17103;48.316;11.558;2023-08-17T09:31:23;30.50;47.20
30288;DHT22;17103;48.316;11.558;2023-08-17T09:33:50;30.50;46.80
30288;DHT22;17103;48.316;11.558;2023-08-17T09:36:23;30.60;47.10
30288;DHT22;17103;48.316;11.558;2023-08-17T09:38:50;30.50;46.30
30288;DHT22;17103;48.316;11.558;2023-08-17T09:41:18;30.70;46.40
30288;DHT22;17103;48.316;11.558;2023-08-17T09:43:44;30.70;46.70
30288;DHT22;17103;48.316;11.558;2023-08-17T09:46:10;30.80;46.70
30288;DHT22;17103;48.316;11.558;2023-08-17T09:48:36;30.90;46.80
30288;DHT22;17103;48.316;11.558;2023-08-17T09:51:01;30.90;46.70
30288;DHT22;17103;48.316;11.558;2023-08-17T09:53:27;30.90;46.60
30288;DHT22;17103;48.316;11.558;2023-08-17T09:55:53;31.00;46.50
30288;DHT22;17103;48.316;11.558;2023-08-17T09:58:21;31.00;46.30
30288;DHT22;17103;48.316;11.558;2023-08-17T10:00:49;31.20;46.10
30288;DHT22;17103;48.316;11.558;2023-08-17T10:03:15;31.10;46.10
30288;DHT22;17103;48.316;11.558;2023-08-17T10:05:44;31.20;46.10
30288;DHT22;17103;48.316;11.558;2023-08-17T10:08:12;31.20;45.70
30288;DHT22;17103;48.316;11.558;2023-08-17T10:10:44;31.30;46.00
30288;DHT22;17103;48.316;11.558;2023-08-17T10:13:23;31.30;45.50
30288;DHT22;17103;48.316;11.558;2023-08-17T10:15:57;31.30;45.90
30288;DHT22;17103;48.316;11.558;2023-08-17T10:18:56;31.40;45.70
30288;DHT22;17103;48.316;11.558;2023-08-17T10:21:28;31.50;45.90
30288;DHT22;17103;48.316;11.558;2023-08-17T10:23:55;31.50;45.80
30288;DHT22;17103;48.316;11.558;2023-08-17T10:26:22;31.60;45.90
30288;DHT22;17103;48.316;11.558;2023-08-17T10:28:48;31.60;45.90
30288;DHT22;17103;48.316;11.558;2023-08-17T10:31:15;31.70;46.00
30288;DHT22;17103;48.316;11.558;2023-08-17T10:33:42;31.70;45.60
30288;DHT22;17103;48.316;11.558;2023-08-17T10:36:11;31.80;46.10
30288;DHT22;17103;48.316;11.558;2023-08-17T10:38:37;31.90;45.90
30288;DHT22;17103;48.316;11.558;2023-08-17T10:41:11;31.90;45.80
30288;DHT22;17103;48.316;11.558;2023-08-17T10:43:57;32.00;45.60
30288;DHT22;17103;48.316;11.558;2023-08-17T10:46:33;32.10;45.80
30288;DHT22;17103;48.316;11.558;2023-08-17T10:49:07;32.20;46.00
30288;DHT22;17103;48.316;11.558;2023-08-17T10:52:05;32.30;45.60
30288;DHT22;17103;48.316;11.558;2023-08-17T10:54:42;32.40;45.50
30288;DHT22;17103;48.316;11.558;2023-08-17T10:57:36;32.50;44.80
30288;DHT22;17103;48.316;11.558;2023-08-17T11:02:34;32.70;45.50
30288;DHT22;17103;48.316;11.558;2023-08-17T11:05:03;32.80;45.90
30288;DHT22;17103;48.316;11.558;2023-08-17T11:07:49;32.80;45.00
30288;DHT22;17103;48.316;11.558;2023-08-17T11:12:44;33.00;44.80
30288;DHT22;17103;48.316;11.558;2023-08-17T11:15:10;33.10;45.00
30288;DHT22;17103;48.316;11.558;2023-08-17T11:17:36;33.20;45.30
30288;DHT22;17103;48.316;11.558;2023-08-17T11:20:01;33.30;44.90
30288;DHT22;17103;48.316;11.558;2023-08-17T11:22:28;33.30;44.60
30288;DHT22;17103;48.316;11.558;2023-08-17T11:24:53;33.40;44.70
30288;DHT22;17103;48.316;11.558;2023-08-17T11:27:21;33.50;44.40
30288;DHT22;17103;48.316;11.558;2023-08-17T11:29:47;33.50;44.20
30288;DHT22;17103;48.316;11.558;2023-08-17T11:32:16;33.60;44.10
30288;DHT22;17103;48.316;11.558;2023-08-17T11:34:42;33.60;43.90
30288;DHT22;17103;48.316;11.558;2023-08-17T11:37:07;33.60;44.40
30288;DHT22;17103;48.316;11.558;2023-08-17T11:39:36;33.70;44.00
30288;DHT22;17103;48.316;11.558;2023-08-17T11:42:02;33.80;43.80
30288;DHT22;17103;48.316;11.558;2023-08-17T11:44:28;33.90;44.00
30288;DHT22;17103;48.316;11.558;2023-08-17T11:46:54;33.80;43.70
30288;DHT22;17103;48.316;11.558;2023-08-17T11:49:20;33.90;43.60
30288;DHT22;17103;48.316;11.558;2023-08-17T11:51:47;34.00;43.50
30288;DHT22;17103;48.316;11.558;2023-08-17T11:54:13;34.10;43.10
30288;DHT22;17103;48.316;11.558;2023-08-17T11:56:39;34.10;42.70
30288;DHT22;17103;48.316;11.558;2023-08-17T11:59:14;34.10;42.90
30288;DHT22;17103;48.316;11.558;2023-08-17T12:01:40;34.10;42.60
30288;DHT22;17103;48.316;11.558;2023-08-17T12:04:06;34.10;42.90
30288;DHT22;17103;48.316;11.558;2023-08-17T12:06:32;34.20;43.50
30288;DHT22;17103;48.316;11.558;2023-08-17T12:08:58;34.20;43.50
30288;DHT22;17103;48.316;11.558;2023-08-17T12:11:24;34.30;43.20
30288;DHT22;17103;48.316;11.558;2023-08-17T12:13:52;34.30;42.80
30288;DHT22;17103;48.316;11.558;2023-08-17T12:16:19;34.40;42.90
30288;DHT22;17103;48.316;11.558;2023-08-17T12:18:48;34.50;42.80
30288;DHT22;17103;48.316;11.558;2023-08-17T12:21:13;34.50;42.50
30288;DHT22;17103;48.316;11.558;2023-08-17T12:23:44;34.60;43.00
30288;DHT22;17103;48.316;11.558;2023-08-17T12:26:10;34.60;42.40
30288;DHT22;17103;48.316;11.558;2023-08-17T12:28:36;34.80;42.40
30288;DHT22;17103;48.316;11.558;2023-08-17T12:31:03;34.80;41.70
30288;DHT22;17103;48.316;11.558;2023-08-17T12:33:29;34.90;42.40
30288;DHT22;17103;48.316;11.558;2023-08-17T12:35:56;35.00;41.60
30288;DHT22;17103;48.316;11.558;2023-08-17T12:38:24;35.00;41.60
30288;DHT22;17103;48.316;11.558;2023-08-17T12:40:53;35.10;41.10
30288;DHT22;17103;48.316;11.558;2023-08-17T12:43:19;35.10;40.50
30288;DHT22;17103;48.316;11.558;2023-08-17T12:45:44;35.20;41.20
30288;DHT22;17103;48.316;11.558;2023-08-17T12:48:11;35.30;40.90
30288;DHT22;17103;48.316;11.558;2023-08-17T12:50:39;35.30;39.40
30288;DHT22;17103;48.316;11.558;2023-08-17T12:53:05;35.40;39.70
30288;DHT22;17103;48.316;11.558;2023-08-17T12:55:30;35.50;40.40
30288;DHT22;17103;48.316;11.558;2023-08-17T12:57:57;35.50;40.90
30288;DHT22;17103;48.316;11.558;2023-08-17T13:00:23;35.60;40.30
30288;DHT22;17103;48.316;11.558;2023-08-17T13:02:49;35.70;40.50
30288;DHT22;17103;48.316;11.558;2023-08-17T13:05:16;35.80;40.50
30288;DHT22;17103;48.316;11.558;2023-08-17T13:07:42;35.90;39.00
30288;DHT22;17103;48.316;11.558;2023-08-17T13:10:08;36.00;39.10
30288;DHT22;17103;48.316;11.558;2023-08-17T13:12:34;36.00;38.50
30288;DHT22;17103;48.316;11.558;2023-08-17T13:15:01;36.10;39.00
30288;DHT22;17103;48.316;11.558;2023-08-17T13:17:26;36.20;38.90
30288;DHT22;17103;48.316;11.558;2023-08-17T13:19:52;36.30;38.90
30288;DHT22;17103;48.316;11.558;2023-08-17T13:22:18;36.40;39.10
30288;DHT22;17103;48.316;11.558;2023-08-17T13:24:43;36.50;38.50
30288;DHT22;17103;48.316;11.558;2023-08-17T13:27:09;36.50;38.80
30288;DHT22;17103;48.316;11.558;2023-08-17T13:29:34;36.60;37.90
30288;DHT22;17103;48.316;11.558;2023-08-17T13:32:01;36.70;38.50
30288;DHT22;17103;48.316;11.558;2023-08-17T13:34:26;36.80;37.90
30288;DHT22;17103;48.316;11.558;2023-08-17T13:36:52;36.80;38.00
30288;DHT22;17103;48.316;11.558;2023-08-17T13:39:18;36.80;38.20
30288;DHT22;17103;48.316;11.558;2023-08-17T13:41:43;36.90;38.10
30288;DHT22;17103;48.316;11.558;2023-08-17T13:44:10;37.10;37.90
30288;DHT22;17103;48.316;11.558;2023-08-17T13:46:35;37.10;37.40
30288;DHT22;17103;48.316;11.558;2023-08-17T13:49:02;37.20;37.70
30288;DHT22;17103;48.316;11.558;2023-08-17T13:51:28;37.30;36.80
30288;DHT22;17103;48.316;11.558;2023-08-17T13:53:53;37.40;37.30
30288;DHT22;17103;48.316;11.558;2023-08-17T13:56:20;37.40;37.70
30288;DHT22;17103;48.316;11.558;2023-08-17T13:58:45;37.50;37.30
30288;DHT22;17103;48.316;11.558;2023-08-17T14:01:11;37.60;37.20
30288;DHT22;17103;48.316;11.558;2023-08-17T14:03:41;37.70;36.40
30288;DHT22;17103;48.316;11.558;2023-08-17T14:06:08;37.90;37.40
30288;DHT22;17103;48.316;11.558;2023-08-17T14:08:33;37.90;36.80
30288;DHT22;17103;48.316;11.558;2023-08-17T14:10:59;37.90;35.90
30288;DHT22;17103;48.316;11.558;2023-08-17T14:13:26;38.00;35.50
30288;DHT22;17103;48.316;11.558;2023-08-17T14:15:51;38.20;35.70
30288;DHT22;17103;48.316;11.558;2023-08-17T14:18:17;38.00;34.90
30288;DHT22;17103;48.316;11.558;2023-08-17T14:20:44;38.20;35.00
30288;DHT22;17103;48.316;11.558;2023-08-17T14:23:09;38.30;34.30
30288;DHT22;17103;48.316;11.558;2023-08-17T14:25:35;38.30;34.60
30288;DHT22;17103;48.316;11.558;2023-08-17T14:28:04;38.40;34.60
30288;DHT22;17103;48.316;11.558;2023-08-17T14:30:30;38.50;34.70
30288;DHT22;17103;48.316;11.558;2023-08-17T14:32:56;38.60;35.20
30288;DHT22;17103;48.316;11.558;2023-08-17T14:35:21;38.60;34.50
30288;DHT22;17103;48.316;11.558;2023-08-17T14:37:47;38.70;34.10
30288;DHT22;17103;48.316;11.558;2023-08-17T14:40:12;38.80;33.80
30288;DHT22;17103;48.316;11.558;2023-08-17T14:42:39;38.90;34.70
30288;DHT22;17103;48.316;11.558;2023-08-17T14:45:05;39.00;34.50
30288;DHT22;17103;48.316;11.558;2023-08-17T14:47:31;39.00;33.40
30288;DHT22;17103;48.316;11.558;2023-08-17T14:49:57;39.10;33.20
30288;DHT22;17103;48.316;11.558;2023-08-17T14:52:23;39.30;33.70
30288;DHT22;17103;48.316;11.558;2023-08-17T14:54:48;39.20;33.30
30288;DHT22;17103;48.316;11.558;2023-08-17T14:57:14;39.20;33.50
30288;DHT22;17103;48.316;11.558;2023-08-17T14:59:39;39.40;32.60
30288;DHT22;17103;48.316;11.558;2023-08-17T15:02:05;39.50;32.90
30288;DHT22;17103;48.316;11.558;2023-08-17T15:04:30;39.50;32.70
30288;DHT22;17103;48.316;11.558;2023-08-17T15:06:56;39.60;33.00
30288;DHT22;17103;48.316;11.558;2023-08-17T15:09:22;39.70;33.80
30288;DHT22;17103;48.316;11.558;2023-08-17T15:11:47;39.70;33.40
30288;DHT22;17103;48.316;11.558;2023-08-17T15:14:16;39.80;32.70
30288;DHT22;17103;48.316;11.558;2023-08-17T15:16:42;39.90;32.20
30288;DHT22;17103;48.316;11.558;2023-08-17T15:19:10;39.90;32.50